Time;durP1;ratioP1;P1;durP2;ratioP2;P2;SDS_P1;SDS_P2;PMS_P1;PMS_P2;Temp;Humidity;BMP_temperature;BMP_pressure;BME280_temperature;BME280_humidity;BME280_pressure;Samples;Min_cycle;Max_cycle;Signal;HPM_P1;HPM_P2
2023/08/26 00:02:19;;;;;;;1.55;1.27;;;23.20;64.60;;;;;;6195202;28;20454;-71
2023/08/26 00:05:20;;;;;;;1.50;1.20;;;23.20;64.60;;;;;;6195568;28;20034;-72
2023/08/26 00:08:20;;;;;;;1.17;1.08;;;23.20;64.60;;;;;;6194971;28;20037;-71
2023/08/26 00:11:21;;;;;;;1.77;1.40;;;23.10;64.50;;;;;;6195119;28;20087;-72
2023/08/26 00:14:21;;;;;;;1.55;1.25;;;23.20;64.70;;;;;;6195491;28;20053;-72
2023/08/26 00:17:22;;;;;;;1.50;1.17;;;23.20;64.60;;;;;;6194983;28;20041;-71
2023/08/26 00:20:23;;;;;;;1.70;1.40;;;23.20;64.60;;;;;;6194097;28;20393;-71
2023/08/26 00:23:23;;;;;;;1.52;1.17;;;23.20;64.60;;;;;;6194974;28;20042;-71
2023/08/26 00:26:24;;;;;;;1.20;1.00;;;23.10;64.50;;;;;;6194364;28;20077;-70
2023/08/26 00:29:25;;;;;;;1.55;1.35;;;23.20;64.60;;;;;;6194923;28;20081;-71
2023/08/26 00:32:25;;;;;;;1.25;1.10;;;23.20;64.60;;;;;;6194731;28;20056;-71
2023/08/26 00:35:26;;;;;;;1.65;1.25;;;23.10;64.50;;;;;;6194535;28;20026;-71
2023/08/26 00:38:30;;;;;;;1.55;1.40;;;23.10;64.50;;;;;;6194935;28;20030;-71
2023/08/26 00:41:30;;;;;;;1.50;1.23;;;23.20;64.60;;;;;;6194059;28;20022;-71
2023/08/26 00:44:31;;;;;;;1.30;1.08;;;23.20;64.60;;;;;;6194422;28;20158;-71
2023/08/26 00:47:31;;;;;;;1.55;1.25;;;23.20;64.70;;;;;;6193927;28;20038;-71
2023/08/26 00:50:32;;;;;;;1.35;1.10;;;23.20;64.70;;;;;;6194670;28;20453;-71
2023/08/26 00:53:34;;;;;;;1.42;1.20;;;23.20;64.70;;;;;;6194068;28;20031;-71
2023/08/26 00:56:35;;;;;;;1.10;1.00;;;23.20;64.60;;;;;;6193868;28;20026;-71
2023/08/26 00:59:36;;;;;;;1.20;1.08;;;23.10;64.50;;;;;;6194214;28;20393;-72
2023/08/26 01:02:36;;;;;;;1.27;1.17;;;23.10;64.50;;;;;;6193383;28;20030;-71
2023/08/26 01:05:37;;;;;;;1.45;1.17;;;23.10;65.40;;;;;;6194440;28;20434;-72
2023/08/26 01:08:38;;;;;;;1.45;1.20;;;23.10;64.50;;;;;;6193736;28;20393;-71
2023/08/26 01:12:05;;;;;;;1.70;1.05;;;23.10;64.50;;;;;;6194263;28;20453;-72
2023/08/26 01:15:09;;;;;;;1.45;1.25;;;23.10;64.60;;;;;;6193915;28;20389;-71
2023/08/26 01:18:13;;;;;;;2.15;1.08;;;23.10;64.50;;;;;;6193937;28;20050;-72
2023/08/26 01:21:14;;;;;;;1.52;1.33;;;23.10;64.50;;;;;;6193926;28;20533;-72
2023/08/26 01:24:15;;;;;;;1.10;1.00;;;23.20;64.70;;;;;;6193760;28;20126;-72
2023/08/26 01:27:15;;;;;;;1.20;1.10;;;23.10;64.60;;;;;;6193824;28;20432;-71
2023/08/26 01:30:17;;;;;;;1.52;1.20;;;23.10;64.50;;;;;;6194027;28;20033;-71
2023/08/26 01:33:24;;;;;;;1.15;1.00;;;23.10;64.50;;;;;;6194043;28;20035;-72
2023/08/26 01:36:27;;;;;;;1.33;1.23;;;23.10;64.50;;;;;;6194321;28;20018;-71
2023/08/26 01:39:28;;;;;;;1.17;1.08;;;23.10;64.50;;;;;;6194132;28;20031;-70
2023/08/26 01:42:30;;;;;;;1.05;0.95;;;23.10;64.50;;;;;;6194045;28;20041;-70
2023/08/26 01:45:30;;;;;;;1.50;1.15;;;23.20;64.60;;;;;;6194002;28;20069;-72
2023/08/26 01:48:31;;;;;;;1.05;0.95;;;23.10;64.60;;;;;;6193713;28;20026;-71
2023/08/26 01:51:32;;;;;;;1.10;1.00;;;23.10;64.60;;;;;;6193839;28;20435;-71
2023/08/26 01:54:33;;;;;;;0.98;0.88;;;23.10;64.60;;;;;;6198515;28;20022;-71
2023/08/26 01:57:33;;;;;;;1.27;1.08;;;23.10;64.60;;;;;;6198550;28;20178;-71
2023/08/26 02:00:34;;;;;;;1.50;1.23;;;23.10;64.60;;;;;;6197564;28;20029;-71
2023/08/26 02:03:35;;;;;;;1.65;1.10;;;23.10;64.60;;;;;;6197771;28;20022;-71
2023/08/26 02:06:37;;;;;;;1.05;0.95;;;23.10;64.60;;;;;;6198466;28;20065;-71
2023/08/26 02:09:38;;;;;;;1.30;1.10;;;23.10;64.50;;;;;;6197351;28;20085;-72
2023/08/26 02:12:38;;;;;;;1.15;1.05;;;23.10;64.60;;;;;;6198006;28;20590;-71
2023/08/26 02:15:39;;;;;;;1.15;1.05;;;23.10;64.60;;;;;;6198357;28;20022;-72
2023/08/26 02:18:39;;;;;;;1.00;0.85;;;23.10;64.50;;;;;;6197587;28;20045;-71
2023/08/26 02:21:40;;;;;;;1.10;1.00;;;23.10;64.60;;;;;;6197657;28;20535;-71
2023/08/26 02:24:41;;;;;;;1.08;0.90;;;23.10;64.60;;;;;;6197118;28;20045;-72
2023/08/26 02:27:41;;;;;;;1.42;1.10;;;23.10;64.50;;;;;;6197272;28;20041;-71
2023/08/26 02:30:42;;;;;;;1.27;1.10;;;23.10;64.60;;;;;;6197561;28;20061;-71
2023/08/26 02:33:42;;;;;;;1.17;1.00;;;23.10;64.60;;;;;;6196737;28;20081;-71
2023/08/26 02:36:43;;;;;;;1.48;1.00;;;23.10;64.50;;;;;;6197904;28;20015;-71
2023/08/26 02:39:45;;;;;;;1.70;1.05;;;23.10;64.60;;;;;;6197203;28;20058;-71
2023/08/26 02:42:46;;;;;;;1.00;0.90;;;23.10;64.60;;;;;;6196862;28;20026;-71
2023/08/26 02:45:54;;;;;;;2.00;1.50;;;23.10;64.60;;;;;;6196925;28;20235;-71
2023/08/26 02:48:56;;;;;;;1.08;0.95;;;23.10;64.60;;;;;;6197235;28;20022;-71
2023/08/26 02:51:56;;;;;;;1.35;1.10;;;23.10;64.60;;;;;;6197444;28;20027;-71
2023/08/26 02:54:57;;;;;;;1.15;1.00;;;23.10;64.60;;;;;;6196772;28;20445;-72
2023/08/26 02:57:57;;;;;;;1.10;0.95;;;23.10;64.60;;;;;;6197388;28;20030;-71
2023/08/26 03:01:00;;;;;;;1.17;1.08;;;23.10;64.60;;;;;;6196993;28;20422;-72
2023/08/26 03:04:01;;;;;;;0.90;0.90;;;23.10;64.60;;;;;;6195874;28;20025;-71
2023/08/26 03:07:02;;;;;;;1.13;0.98;;;23.10;64.60;;;;;;6196868;28;20030;-72
2023/08/26 03:10:02;;;;;;;1.50;1.00;;;23.10;64.60;;;;;;6196093;28;20058;-70
2023/08/26 03:13:06;;;;;;;1.17;0.98;;;23.10;64.60;;;;;;6196649;28;20026;-70
2023/08/26 03:16:09;;;;;;;1.25;0.82;;;23.10;64.60;;;;;;6196759;28;20049;-72
2023/08/26 03:19:10;;;;;;;1.17;1.00;;;23.10;64.60;;;;;;6196274;28;20049;-71
2023/08/26 03:22:10;;;;;;;1.00;0.90;;;23.10;64.60;;;;;;6196872;28;20436;-71
2023/08/26 03:25:11;;;;;;;1.20;1.00;;;23.10;64.60;;;;;;6196097;28;20038;-71
2023/08/26 03:28:12;;;;;;;1.00;0.90;;;23.10;64.60;;;;;;6196255;28;20041;-71
2023/08/26 03:31:12;;;;;;;0.90;0.88;;;23.10;64.60;;;;;;6196083;28;20085;-71
2023/08/26 03:34:13;;;;;;;0.80;0.80;;;23.10;64.60;;;;;;6196162;28;20026;-72
2023/08/26 03:37:14;;;;;;;1.08;0.98;;;23.10;64.60;;;;;;6195880;28;20378;-72
2023/08/26 03:40:15;;;;;;;1.15;1.00;;;23.10;64.60;;;;;;6196235;28;20026;-71
2023/08/26 03:43:15;;;;;;;1.20;0.90;;;23.10;64.60;;;;;;6195800;28;20026;-72
2023/08/26 03:46:16;;;;;;;1.17;1.00;;;23.10;64.60;;;;;;6195791;28;20038;-70
2023/08/26 03:49:16;;;;;;;0.93;0.88;;;23.10;64.60;;;;;;6195607;28;20118;-72
2023/08/26 03:52:17;;;;;;;1.15;1.00;;;23.10;64.60;;;;;;6195655;28;20045;-71
2023/08/26 03:55:18;;;;;;;0.75;0.75;;;23.10;64.60;;;;;;6195340;28;20037;-71
2023/08/26 03:58:18;;;;;;;1.05;0.95;;;23.10;64.60;;;;;;6195486;28;20057;-71
2023/08/26 04:01:20;;;;;;;1.00;0.90;;;23.10;64.60;;;;;;6195064;28;20128;-72
2023/08/26 04:04:20;;;;;;;1.10;1.00;;;23.10;64.60;;;;;;6194927;28;20476;-72
2023/08/26 04:07:21;;;;;;;0.80;0.80;;;23.10;64.60;;;;;;6195028;28;20091;-71
2023/08/26 04:10:22;;;;;;;0.80;0.70;;;23.10;64.60;;;;;;6195265;28;20049;-71
2023/08/26 04:13:27;;;;;;;1.00;0.90;;;23.10;64.60;;;;;;6194909;28;20042;-72
2023/08/26 04:16:28;;;;;;;1.00;0.90;;;23.10;64.60;;;;;;6195008;28;20034;-71
2023/08/26 04:19:30;;;;;;;1.30;0.98;;;23.10;64.60;;;;;;6194752;28;20097;-71
2023/08/26 04:22:31;;;;;;;0.80;0.80;;;23.10;64.60;;;;;;6195167;28;20030;-72
2023/08/26 04:25:32;;;;;;;1.60;1.00;;;23.10;64.60;;;;;;6194346;28;20034;-71
2023/08/26 04:28:32;;;;;;;0.90;0.82;;;23.10;64.60;;;;;;6194842;28;20034;-71
2023/08/26 04:31:33;;;;;;;0.93;0.82;;;23.10;64.60;;;;;;6194454;28;20547;-71
2023/08/26 04:34:34;;;;;;;0.70;0.68;;;23.10;64.60;;;;;;6194600;28;20053;-71
2023/08/26 04:37:34;;;;;;;1.38;0.90;;;23.10;64.60;;;;;;6194764;28;20063;-71
2023/08/26 04:40:35;;;;;;;1.08;0.80;;;23.10;64.60;;;;;;6194435;28;20025;-71
2023/08/26 04:43:36;;;;;;;0.65;0.65;;;23.10;64.60;;;;;;6194527;28;20030;-70
2023/08/26 04:46:37;;;;;;;0.80;0.80;;;23.10;64.60;;;;;;6194842;28;20385;-70
2023/08/26 04:49:39;;;;;;;1.05;0.75;;;23.10;64.60;;;;;;6194225;28;20026;-70
2023/08/26 04:52:40;;;;;;;1.63;1.00;;;23.10;64.60;;;;;;6194612;28;20458;-71
2023/08/26 04:55:41;;;;;;;1.13;0.90;;;23.10;64.60;;;;;;6194168;28;20022;-71
2023/08/26 04:58:42;;;;;;;1.20;1.00;;;23.10;64.60;;;;;;6194201;28;20104;-71
2023/08/26 05:01:42;;;;;;;1.05;0.90;;;23.10;64.60;;;;;;6186460;28;20041;-70
2023/08/26 05:04:44;;;;;;;1.10;0.85;;;23.10;64.70;;;;;;6169708;28;20038;-70
2023/08/26 05:07:45;;;;;;;0.88;0.80;;;23.10;64.60;;;;;;6191861;28;20494;-72
2023/08/26 05:10:45;;;;;;;0.82;0.73;;;23.10;64.60;;;;;;6193974;28;20073;-71
2023/08/26 05:13:46;;;;;;;1.20;1.02;;;23.10;64.60;;;;;;6193902;28;20105;-71
2023/08/26 05:16:46;;;;;;;1.10;0.93;;;23.10;64.70;;;;;;6193747;28;20023;-71
2023/08/26 05:19:47;;;;;;;0.90;0.80;;;23.10;64.60;;;;;;6194078;28;20030;-71
2023/08/26 05:22:48;;;;;;;1.58;1.20;;;23.10;64.60;;;;;;6194062;28;20041;-70
2023/08/26 05:25:49;;;;;;;0.80;0.70;;;23.10;64.70;;;;;;6193577;28;20026;-71
2023/08/26 05:28:50;;;;;;;1.10;0.80;;;23.10;64.60;;;;;;6198550;28;20084;-70
2023/08/26 05:31:50;;;;;;;1.05;0.95;;;23.10;64.70;;;;;;6198988;28;20034;-70
2023/08/26 05:34:51;;;;;;;1.10;0.90;;;23.10;64.70;;;;;;6198450;28;20045;-70
2023/08/26 05:37:51;;;;;;;1.00;0.90;;;23.10;64.60;;;;;;6198726;28;20030;-70
2023/08/26 05:40:52;;;;;;;0.65;0.60;;;23.10;64.70;;;;;;6198479;28;20513;-71
2023/08/26 05:43:52;;;;;;;1.17;1.05;;;23.10;64.70;;;;;;6199141;28;20030;-70
2023/08/26 05:46:55;;;;;;;1.00;0.80;;;23.10;64.70;;;;;;6198491;28;20034;-70
2023/08/26 05:49:58;;;;;;;1.10;1.00;;;23.10;64.70;;;;;;6198252;28;20362;-70
2023/08/26 05:52:59;;;;;;;0.70;0.70;;;23.10;64.70;;;;;;6198483;28;20022;-71
2023/08/26 05:55:59;;;;;;;0.93;0.82;;;23.10;64.70;;;;;;6198124;28;20428;-71
2023/08/26 05:59:00;;;;;;;1.17;1.00;;;23.10;64.70;;;;;;6197788;28;20026;-71
2023/08/26 06:02:00;;;;;;;0.88;0.77;;;23.10;64.70;;;;;;6198358;28;20378;-71
2023/08/26 06:05:01;;;;;;;0.95;0.80;;;23.10;64.70;;;;;;6198225;28;20169;-71
2023/08/26 06:08:02;;;;;;;1.00;0.90;;;23.10;64.70;;;;;;6197948;28;20425;-70
2023/08/26 06:11:02;;;;;;;0.60;0.60;;;23.10;64.70;;;;;;6197818;28;20050;-72
2023/08/26 06:14:03;;;;;;;1.05;0.90;;;23.10;64.70;;;;;;6198034;28;20473;-71
2023/08/26 06:17:04;;;;;;;0.75;0.70;;;23.10;64.70;;;;;;6197681;28;20049;-71
2023/08/26 06:20:05;;;;;;;1.23;0.93;;;23.10;64.70;;;;;;6198165;28;20030;-71
2023/08/26 06:23:06;;;;;;;0.70;0.70;;;23.10;64.70;;;;;;6197401;28;20048;-70
2023/08/26 06:26:06;;;;;;;0.80;0.70;;;23.10;64.70;;;;;;6197406;28;20034;-71
2023/08/26 06:29:07;;;;;;;1.40;0.75;;;23.10;64.70;;;;;;6197349;28;20109;-71
2023/08/26 06:32:07;;;;;;;0.73;0.70;;;23.10;64.80;;;;;;6197418;28;20037;-72
2023/08/26 06:35:08;;;;;;;0.68;0.65;;;23.10;64.70;;;;;;6197491;28;20030;-72
2023/08/26 06:38:09;;;;;;;0.85;0.85;;;23.10;64.70;;;;;;6197119;28;20034;-72
2023/08/26 06:41:09;;;;;;;0.95;0.80;;;23.10;64.70;;;;;;6197205;28;20037;-71
2023/08/26 06:44:10;;;;;;;1.15;1.00;;;23.10;64.70;;;;;;6197163;28;20120;-71
2023/08/26 06:47:11;;;;;;;0.70;0.70;;;23.10;64.70;;;;;;6196974;28;20034;-71
2023/08/26 06:50:12;;;;;;;1.17;1.00;;;23.10;64.70;;;;;;6196825;28;20536;-70
2023/08/26 06:53:12;;;;;;;0.95;0.70;;;23.10;64.70;;;;;;6197100;28;20105;-71
2023/08/26 06:56:13;;;;;;;1.08;0.80;;;23.10;64.70;;;;;;6196689;28;20104;-72
2023/08/26 06:59:14;;;;;;;0.80;0.70;;;23.10;64.70;;;;;;6196948;28;20038;-71
2023/08/26 07:02:15;;;;;;;0.70;0.70;;;23.10;64.70;;;;;;6196567;28;20034;-70
2023/08/26 07:05:15;;;;;;;0.70;0.65;;;23.10;64.70;;;;;;6197172;28;20034;-71
2023/08/26 07:08:18;;;;;;;0.73;0.73;;;23.10;64.70;;;;;;6197283;28;20112;-71
2023/08/26 07:11:18;;;;;;;0.80;0.77;;;23.10;64.70;;;;;;6196874;28;20081;-71
2023/08/26 07:14:19;;;;;;;1.40;0.77;;;23.10;64.70;;;;;;6196755;28;20023;-71
2023/08/26 07:17:19;;;;;;;1.20;1.00;;;23.10;64.70;;;;;;6196317;28;20102;-71
2023/08/26 07:20:20;;;;;;;0.80;0.80;;;23.10;64.70;;;;;;6196527;28;20469;-71
2023/08/26 07:23:21;;;;;;;1.00;0.90;;;23.10;64.80;;;;;;6211584;28;20376;-71
2023/08/26 07:26:21;;;;;;;0.82;0.70;;;23.10;64.70;;;;;;6196277;28;20030;-70
2023/08/26 07:29:22;;;;;;;0.88;0.77;;;23.10;64.70;;;;;;6196711;28;20529;-71
2023/08/26 07:32:23;;;;;;;0.95;0.82;;;23.10;64.70;;;;;;6199765;28;20031;-71
2023/08/26 07:35:23;;;;;;;0.65;0.65;;;23.10;64.70;;;;;;6196627;28;20026;-71
2023/08/26 07:38:24;;;;;;;0.90;0.70;;;23.10;64.70;;;;;;6196217;28;20069;-71
2023/08/26 07:41:24;;;;;;;0.60;0.60;;;23.10;64.70;;;;;;6196068;28;20771;-70
2023/08/26 07:44:25;;;;;;;1.02;0.88;;;23.10;64.80;;;;;;6192089;28;20439;-71
2023/08/26 07:47:26;;;;;;;0.70;0.60;;;23.10;64.70;;;;;;6190520;28;20029;-70
2023/08/26 07:50:26;;;;;;;1.48;0.90;;;23.10;64.80;;;;;;6195283;28;20038;-70
2023/08/26 07:53:27;;;;;;;0.68;0.60;;;23.10;64.70;;;;;;6193770;28;20030;-71
2023/08/26 07:56:27;;;;;;;0.75;0.65;;;23.10;64.70;;;;;;6193377;28;20031;-71
2023/08/26 07:59:28;;;;;;;2.95;1.10;;;23.10;64.90;;;;;;6194154;28;20101;-71
2023/08/26 08:02:29;;;;;;;1.27;0.90;;;23.10;65.20;;;;;;6193480;28;20034;-71
2023/08/26 08:05:30;;;;;;;1.33;1.13;;;23.10;65.40;;;;;;6193431;28;20397;-71
2023/08/26 08:08:30;;;;;;;1.15;0.95;;;23.10;66.00;;;;;;6193605;28;20030;-71
2023/08/26 08:11:31;;;;;;;3.22;1.30;;;23.10;66.80;;;;;;6193274;28;20046;-71
2023/08/26 08:14:31;;;;;;;3.00;1.88;;;23.10;66.80;;;;;;6193904;28;20029;-71
2023/08/26 08:17:32;;;;;;;4.13;2.30;;;23.10;67.50;;;;;;6193188;28;20032;-71
2023/08/26 08:20:33;;;;;;;5.75;2.60;;;23.10;68.80;;;;;;6193365;28;20061;-71
2023/08/26 08:23:33;;;;;;;3.80;1.40;;;23.00;70.50;;;;;;6193044;28;20061;-71
2023/08/26 08:26:35;;;;;;;4.50;1.75;;;23.00;68.20;;;;;;6216530;28;20065;-71
2023/08/26 08:29:35;;;;;;;2.58;2.00;;;23.00;67.80;;;;;;6193942;28;20157;-71
2023/08/26 08:32:36;;;;;;;2.60;1.77;;;23.00;68.20;;;;;;6192847;28;20031;-71
2023/08/26 08:35:37;;;;;;;7.55;2.55;;;23.00;67.80;;;;;;6203280;28;20455;-71
2023/08/26 08:38:37;;;;;;;6.10;1.40;;;23.10;68.80;;;;;;6188690;28;20120;-71
2023/08/26 08:41:41;;;;;;;2.85;1.88;;;23.10;67.70;;;;;;6193247;28;20360;-71
2023/08/26 08:44:43;;;;;;;2.17;1.52;;;23.10;68.50;;;;;;6189423;28;20030;-70
2023/08/26 08:47:45;;;;;;;4.20;1.90;;;23.10;68.00;;;;;;6187852;28;20394;-71
2023/08/26 08:50:46;;;;;;;1.88;1.52;;;23.10;67.20;;;;;;6191892;28;20433;-71
2023/08/26 08:53:47;;;;;;;4.32;2.33;;;23.10;67.00;;;;;;6190977;28;20025;-71
2023/08/26 08:56:48;;;;;;;4.38;1.45;;;23.10;68.40;;;;;;6192407;28;20038;-71
2023/08/26 08:59:50;;;;;;;2.08;1.42;;;23.10;67.10;;;;;;6193156;28;20041;-71
2023/08/26 09:02:53;;;;;;;2.72;1.85;;;23.00;66.70;;;;;;6191795;28;20114;-71
2023/08/26 09:05:54;;;;;;;6.07;3.55;;;23.10;66.90;;;;;;6192735;28;20235;-70
2023/08/26 09:08:59;;;;;;;8.68;4.85;;;23.10;68.30;;;;;;6192431;28;20019;-71
2023/08/26 09:12:00;;;;;;;3.80;2.38;;;23.10;70.40;;;;;;6192223;28;20389;-71
2023/08/26 09:15:01;;;;;;;3.22;2.20;;;23.10;68.10;;;;;;6191714;28;20382;-71
2023/08/26 09:18:02;;;;;;;1.73;1.63;;;23.00;67.40;;;;;;6192031;28;20030;-71
2023/08/26 09:21:07;;;;;;;3.13;1.95;;;23.10;66.80;;;;;;6192346;28;20054;-71
2023/08/26 09:24:14;;;;;;;4.90;2.55;;;23.10;66.80;;;;;;6191841;28;20018;-71
2023/08/26 09:27:16;;;;;;;2.88;1.83;;;23.10;66.90;;;;;;6192569;28;20031;-70
2023/08/26 09:30:20;;;;;;;2.30;1.80;;;23.10;67.00;;;;;;6191493;28;20429;-72
2023/08/26 09:33:20;;;;;;;4.53;2.25;;;23.10;66.70;;;;;;6191017;28;20041;-71
2023/08/26 09:36:38;;;;;;;2.55;1.90;;;23.10;67.00;;;;;;6191337;28;20477;-70
2023/08/26 09:39:46;;;;;;;3.10;2.10;;;23.10;67.40;;;;;;6192110;28;20105;-71
2023/08/26 09:42:47;;;;;;;2.65;1.90;;;23.10;66.60;;;;;;6191683;28;20351;-70
2023/08/26 09:45:48;;;;;;;3.13;2.03;;;23.10;66.50;;;;;;6207369;28;20571;-71
2023/08/26 09:48:49;;;;;;;3.13;2.30;;;23.10;66.50;;;;;;6191685;28;20141;-71
2023/08/26 09:51:51;;;;;;;2.40;1.77;;;23.10;66.40;;;;;;6192274;28;20354;-70
2023/08/26 09:54:53;;;;;;;3.22;1.80;;;23.10;66.20;;;;;;6192156;28;20069;-71
2023/08/26 09:57:54;;;;;;;2.85;1.75;;;23.10;66.20;;;;;;6192202;28;20168;-71
2023/08/26 10:00:55;;;;;;;2.70;1.70;;;23.10;66.20;;;;;;6191857;28;20030;-71
2023/08/26 10:04:04;;;;;;;5.35;2.17;;;23.10;66.20;;;;;;6191026;28;20190;-71
2023/08/26 10:07:05;;;;;;;2.45;1.95;;;23.10;66.20;;;;;;6192102;28;20042;-71
2023/08/26 10:10:28;;;;;;;1.90;1.50;;;23.10;66.10;;;;;;6191216;28;20054;-71
2023/08/26 10:13:33;;;;;;;2.67;2.17;;;23.10;66.20;;;;;;6187941;28;20454;-70
2023/08/26 10:16:35;;;;;;;3.28;1.95;;;23.10;66.10;;;;;;6191680;28;20023;-71
2023/08/26 10:19:36;;;;;;;3.85;1.80;;;23.10;66.10;;;;;;6196243;28;20023;-71
2023/08/26 10:22:38;;;;;;;2.80;2.17;;;23.10;66.00;;;;;;6196437;28;20054;-71
2023/08/26 10:25:39;;;;;;;3.13;1.75;;;23.10;66.10;;;;;;6207002;28;20117;-71
2023/08/26 10:28:41;;;;;;;2.47;1.83;;;23.10;66.00;;;;;;6196268;28;20026;-71
2023/08/26 10:31:45;;;;;;;3.28;1.70;;;23.10;66.00;;;;;;6195503;28;20491;-71
2023/08/26 10:34:57;;;;;;;2.83;1.70;;;23.10;65.90;;;;;;6195493;28;20491;-71
2023/08/26 10:38:12;;;;;;;2.15;1.65;;;23.10;65.90;;;;;;6196113;28;20062;-71
2023/08/26 10:41:12;;;;;;;2.53;1.80;;;23.10;65.80;;;;;;6185886;28;20022;-71
2023/08/26 10:44:14;;;;;;;2.15;1.65;;;23.10;66.00;;;;;;6195396;28;20034;-71
2023/08/26 10:47:34;;;;;;;2.20;1.42;;;23.10;65.90;;;;;;6195883;28;20532;-70
2023/08/26 10:50:35;;;;;;;3.92;1.40;;;23.10;65.80;;;;;;6193996;28;20116;-70
2023/08/26 10:53:48;;;;;;;2.38;1.73;;;23.10;65.80;;;;;;6195365;28;20045;-71
2023/08/26 10:57:02;;;;;;;2.22;1.77;;;23.10;65.80;;;;;;6195496;28;20030;-70
2023/08/26 11:00:09;;;;;;;2.15;1.75;;;23.10;65.80;;;;;;6195873;28;20117;-71
2023/08/26 11:03:11;;;;;;;3.05;1.60;;;23.10;65.80;;;;;;6188023;28;20542;-71
2023/08/26 11:06:22;;;;;;;2.45;1.70;;;23.10;65.80;;;;;;6194603;28;20460;-70
2023/08/26 11:09:22;;;;;;;3.25;1.60;;;23.10;65.70;;;;;;6195399;28;20042;-69
2023/08/26 11:12:25;;;;;;;1.58;1.35;;;23.10;65.70;;;;;;6194329;28;20454;-70
2023/08/26 11:15:39;;;;;;;1.90;1.50;;;23.10;65.80;;;;;;6195507;28;20117;-71
2023/08/26 11:18:39;;;;;;;2.00;1.48;;;23.10;65.80;;;;;;6197219;28;20015;-70
2023/08/26 11:21:40;;;;;;;2.10;1.55;;;23.10;65.70;;;;;;6203329;28;20069;-71
2023/08/26 11:24:47;;;;;;;2.30;1.50;;;23.10;66.60;;;;;;6183950;28;20129;-70
2023/08/26 11:27:48;;;;;;;2.00;1.52;;;23.10;65.70;;;;;;6193168;28;20425;-71
2023/08/26 11:30:49;;;;;;;1.88;1.60;;;23.10;65.70;;;;;;6192064;28;20026;-72
2023/08/26 11:33:51;;;;;;;2.00;1.48;;;23.10;65.70;;;;;;6198180;28;20031;-71
2023/08/26 11:36:53;;;;;;;3.65;1.40;;;23.10;65.70;;;;;;6195071;28;20022;-71
2023/08/26 11:39:59;;;;;;;2.05;1.58;;;23.10;65.70;;;;;;6194361;28;20504;-71
2023/08/26 11:43:07;;;;;;;3.05;1.80;;;23.10;65.70;;;;;;6194207;28;20493;-72
2023/08/26 11:46:09;;;;;;;2.53;1.73;;;23.10;65.70;;;;;;6183142;28;20049;-72
2023/08/26 11:49:11;;;;;;;2.05;1.75;;;23.10;65.70;;;;;;6193025;28;20081;-71
2023/08/26 11:52:13;;;;;;;2.63;1.67;;;23.10;65.70;;;;;;6191447;28;20053;-71
2023/08/26 11:55:14;;;;;;;2.72;1.77;;;23.10;65.70;;;;;;6192135;28;20066;-71
2023/08/26 11:58:14;;;;;;;3.00;2.17;;;23.10;65.70;;;;;;6191590;28;20035;-71
2023/08/26 12:01:15;;;;;;;2.63;1.80;;;23.10;65.60;;;;;;6184048;28;20026;-71
2023/08/26 12:04:16;;;;;;;2.92;1.88;;;23.10;65.60;;;;;;6191584;28;20053;-71
2023/08/26 12:07:17;;;;;;;2.22;1.70;;;23.10;65.60;;;;;;6193054;28;20064;-72
2023/08/26 12:10:18;;;;;;;2.10;1.73;;;23.10;65.70;;;;;;6184106;28;20181;-71
2023/08/26 12:13:19;;;;;;;2.38;1.63;;;23.10;65.70;;;;;;6192394;28;20037;-71
2023/08/26 12:16:21;;;;;;;2.13;1.80;;;23.10;65.70;;;;;;6193966;28;20023;-72
2023/08/26 12:19:21;;;;;;;2.17;1.60;;;23.10;65.60;;;;;;6193598;28;20058;-72
2023/08/26 12:22:22;;;;;;;2.65;1.92;;;23.10;65.60;;;;;;6193830;28;20122;-72
2023/08/26 12:25:32;;;;;;;2.88;2.03;;;23.10;65.60;;;;;;6193242;28;20073;-71
2023/08/26 12:28:38;;;;;;;2.40;1.73;;;23.10;65.60;;;;;;6193506;28;20026;-72
2023/08/26 12:31:39;;;;;;;2.70;1.92;;;23.10;65.60;;;;;;6193478;28;20080;-72
2023/08/26 12:34:40;;;;;;;2.53;1.95;;;23.10;65.60;;;;;;6193704;28;20109;-72
2023/08/26 12:37:40;;;;;;;2.58;1.88;;;23.10;65.60;;;;;;6192608;28;20057;-71
2023/08/26 12:40:47;;;;;;;3.10;2.10;;;23.10;65.60;;;;;;6193158;28;20028;-72
2023/08/26 12:43:50;;;;;;;2.38;1.80;;;23.10;65.60;;;;;;6192709;28;20085;-72
2023/08/26 12:46:51;;;;;;;2.63;2.00;;;23.10;65.60;;;;;;6193538;28;20035;-71
2023/08/26 12:49:53;;;;;;;3.13;1.98;;;23.10;65.60;;;;;;6192848;28;20034;-72
2023/08/26 12:52:54;;;;;;;3.53;1.95;;;23.10;65.60;;;;;;6182315;28;20060;-71
2023/08/26 12:55:55;;;;;;;4.10;2.08;;;23.10;65.50;;;;;;6190453;28;20077;-72
2023/08/26 12:58:55;;;;;;;2.72;2.15;;;23.10;65.60;;;;;;6192126;28;20485;-72
2023/08/26 13:01:56;;;;;;;3.15;1.90;;;23.00;65.40;;;;;;6193728;28;20481;-72
2023/08/26 13:04:57;;;;;;;2.03;1.67;;;23.10;65.60;;;;;;6192266;28;20031;-72
2023/08/26 13:07:57;;;;;;;3.20;1.90;;;23.10;65.60;;;;;;6193155;28;20062;-71
2023/08/26 13:11:00;;;;;;;2.47;1.85;;;23.10;65.50;;;;;;6192553;28;20065;-72
2023/08/26 13:14:01;;;;;;;2.85;1.77;;;23.10;65.50;;;;;;6193009;28;20038;-71
2023/08/26 13:17:02;;;;;;;4.40;2.20;;;23.10;65.50;;;;;;6192243;28;20037;-71
2023/08/26 13:20:03;;;;;;;3.78;1.90;;;23.10;65.60;;;;;;6192590;28;20161;-71
2023/08/26 13:23:04;;;;;;;2.50;1.60;;;23.10;65.50;;;;;;6197406;28;20022;-71
2023/08/26 13:26:05;;;;;;;2.38;1.88;;;23.10;65.50;;;;;;6193033;28;20393;-71
2023/08/26 13:29:05;;;;;;;2.72;1.90;;;23.10;65.50;;;;;;6207897;28;20027;-71
2023/08/26 13:32:06;;;;;;;3.50;1.90;;;23.10;65.40;;;;;;6192221;28;20482;-71
2023/08/26 13:35:07;;;;;;;2.15;1.80;;;23.10;65.50;;;;;;6191657;28;20041;-71
2023/08/26 13:38:08;;;;;;;2.28;1.80;;;23.10;65.40;;;;;;6183594;28;20385;-71
2023/08/26 13:41:08;;;;;;;2.05;1.70;;;23.10;65.40;;;;;;6191189;28;20110;-72
2023/08/26 13:44:09;;;;;;;2.45;1.90;;;23.10;65.40;;;;;;6191998;28;20501;-70
2023/08/26 13:47:09;;;;;;;2.67;1.63;;;23.10;65.40;;;;;;6192851;28;20149;-73
2023/08/26 13:50:10;;;;;;;2.00;1.70;;;23.10;65.40;;;;;;6196796;28;20484;-71
2023/08/26 13:53:11;;;;;;;2.70;1.80;;;23.10;65.40;;;;;;6188198;28;20034;-71
2023/08/26 13:56:12;;;;;;;1.67;1.58;;;23.10;65.40;;;;;;6195949;28;20090;-72
2023/08/26 13:59:12;;;;;;;2.05;1.70;;;23.10;65.40;;;;;;6197005;28;20320;-71
2023/08/26 14:02:13;;;;;;;2.90;1.88;;;23.10;65.40;;;;;;6197203;28;20034;-71
2023/08/26 14:05:14;;;;;;;2.38;1.83;;;23.10;65.40;;;;;;6196304;28;20116;-72
2023/08/26 14:08:14;;;;;;;2.53;2.00;;;23.10;65.40;;;;;;6196982;28;20054;-71
2023/08/26 14:11:15;;;;;;;2.70;1.77;;;23.10;65.40;;;;;;6211670;28;20404;-72
2023/08/26 14:14:15;;;;;;;2.75;1.95;;;23.10;65.40;;;;;;6195857;28;20057;-71
2023/08/26 14:17:18;;;;;;;1.50;1.38;;;23.10;65.40;;;;;;6197227;28;20019;-71
2023/08/26 14:20:18;;;;;;;2.28;1.70;;;23.10;65.40;;;;;;6196420;28;20030;-71
2023/08/26 14:23:19;;;;;;;2.20;1.65;;;23.10;65.40;;;;;;6194033;28;20097;-71
2023/08/26 14:26:20;;;;;;;2.40;1.80;;;23.10;65.40;;;;;;6195370;28;20156;-71
2023/08/26 14:29:20;;;;;;;1.95;1.75;;;23.10;65.40;;;;;;6195226;28;20435;-72
2023/08/26 14:32:22;;;;;;;2.85;1.58;;;23.10;65.40;;;;;;6202371;28;20030;-71
2023/08/26 14:35:23;;;;;;;2.08;1.77;;;23.10;65.40;;;;;;6182572;28;20041;-71
2023/08/26 14:38:24;;;;;;;1.98;1.50;;;23.10;65.40;;;;;;6195446;28;20504;-71
2023/08/26 14:41:24;;;;;;;2.55;1.70;;;23.10;65.40;;;;;;6203925;28;20034;-71
2023/08/26 14:44:26;;;;;;;2.13;1.50;;;23.10;65.40;;;;;;6211151;28;20731;-71
2023/08/26 14:47:26;;;;;;;2.22;1.63;;;23.10;65.40;;;;;;6203948;28;20077;-71
2023/08/26 14:50:27;;;;;;;1.70;1.60;;;23.10;66.20;;;;;;6204820;28;20037;-71
2023/08/26 14:53:28;;;;;;;3.13;1.83;;;23.00;65.40;;;;;;6204028;28;20022;-71
2023/08/26 14:56:28;;;;;;;2.10;1.75;;;23.10;65.40;;;;;;6194698;28;20437;-71
2023/08/26 14:59:29;;;;;;;2.03;1.48;;;23.10;65.40;;;;;;6194590;28;20030;-70
2023/08/26 15:02:30;;;;;;;2.00;1.60;;;23.10;65.40;;;;;;6192842;28;20030;-71
2023/08/26 15:05:30;;;;;;;2.38;1.63;;;23.10;65.40;;;;;;6199719;28;20401;-72
2023/08/26 15:08:31;;;;;;;1.95;1.50;;;23.10;65.40;;;;;;6188950;28;20034;-71
2023/08/26 15:11:32;;;;;;;1.60;1.50;;;23.10;65.40;;;;;;6191164;28;20057;-70
2023/08/26 15:14:34;;;;;;;2.08;1.67;;;23.00;65.30;;;;;;6193221;28;20030;-71
2023/08/26 15:17:34;;;;;;;1.95;1.60;;;23.10;65.40;;;;;;6194520;28;20092;-69
2023/08/26 15:20:35;;;;;;;1.92;1.48;;;23.00;65.40;;;;;;6193262;28;20393;-71
2023/08/26 15:23:36;;;;;;;2.15;1.83;;;23.10;65.40;;;;;;6193921;28;20029;-72
2023/08/26 15:26:36;;;;;;;2.65;1.50;;;23.10;65.40;;;;;;6193582;28;20377;-71
2023/08/26 15:29:37;;;;;;;1.92;1.40;;;23.10;65.40;;;;;;6193586;28;20030;-71
2023/08/26 15:32:38;;;;;;;1.73;1.55;;;23.00;65.30;;;;;;6193069;28;20031;-71
2023/08/26 15:35:40;;;;;;;2.42;1.70;;;23.10;65.40;;;;;;6192724;28;20022;-71
2023/08/26 15:38:40;;;;;;;2.67;1.60;;;23.10;65.40;;;;;;6192915;28;20033;-71
2023/08/26 15:41:41;;;;;;;1.38;1.27;;;23.00;65.30;;;;;;6193139;28;20481;-71
2023/08/26 15:44:42;;;;;;;1.40;1.30;;;23.10;65.40;;;;;;6192858;28;20030;-71
2023/08/26 15:47:43;;;;;;;2.15;1.58;;;23.00;65.20;;;;;;6193271;28;20120;-70